Terminal Aerodrome Forecast
Issued by NWS Wilmington, OH

Current Version | Previous Version | Graphics & Text | Print | Product List | Glossary On
Versions: 1 2 3 4 5 6 7 8 9 10 11 12 13 14 15 16 17 18 19 20 21 22 23 24 25 26 27 28
000
FTUS41 KILN 240700 AAA
TAFCVG
TAF AMD
KCVG 240744Z 2408/2512 31005KT P6SM OVC018
      TEMPO 2408/2412 OVC022
     FM241200 25010KT P6SM SCT080
     FM241800 26010G18KT P6SM OVC035
     FM242200 26008KT P6SM OVC035
     FM250600 20005KT P6SM BKN025
     FM251000 17005KT 5SM BR BKN018=

USA.gov is the U.S. government's official web portal to all federal, state and local government web resources and services.